createdAt,value
2022-10-22T00:01:34.005Z,15.90
2022-10-22T00:04:01.223Z,16.00
2022-10-22T00:06:28.187Z,16.10
2022-10-22T00:08:55.291Z,16.20
2022-10-22T00:11:22.458Z,16.20
2022-10-22T00:13:49.903Z,16.20
2022-10-22T00:16:24.241Z,16.20
2022-10-22T00:18:51.593Z,16.20
2022-10-22T00:21:20.773Z,16.20
2022-10-22T00:23:48.939Z,16.20
2022-10-22T00:26:15.856Z,16.20
2022-10-22T00:28:45.977Z,16.20
2022-10-22T00:31:15.768Z,16.20
2022-10-22T00:33:47.242Z,16.10
2022-10-22T00:36:14.446Z,16.10
2022-10-22T00:38:47.566Z,16.10
2022-10-22T00:41:14.681Z,16.10
2022-10-22T00:43:57.058Z,16.20
2022-10-22T00:46:24.078Z,16.20
2022-10-22T00:48:57.235Z,16.10
2022-10-22T00:51:29.277Z,16.10
2022-10-22T00:54:07.050Z,16.10
2022-10-22T00:56:40.467Z,16.10
2022-10-22T01:01:40.500Z,16.10
2022-10-22T01:04:09.005Z,16.20
2022-10-22T01:06:39.306Z,16.10
2022-10-22T01:09:28.759Z,16.10
2022-10-22T01:12:03.314Z,16.10
2022-10-22T01:14:43.578Z,16.10
2022-10-22T01:17:25.192Z,16.10
2022-10-22T01:20:09.146Z,16.00
2022-10-22T01:22:42.595Z,16.00
2022-10-22T01:25:21.380Z,15.80
2022-10-22T01:28:06.063Z,15.80
2022-10-22T01:30:36.588Z,15.90
2022-10-22T01:33:07.341Z,15.70
2022-10-22T01:35:42.718Z,15.80
2022-10-22T01:38:17.839Z,15.80
2022-10-22T01:40:51.342Z,15.80
2022-10-22T01:43:18.779Z,15.80
2022-10-22T01:45:58.775Z,15.90
2022-10-22T01:48:37.255Z,15.90
2022-10-22T01:51:41.855Z,16.00
2022-10-22T01:54:26.664Z,16.00
2022-10-22T01:57:08.592Z,16.00
2022-10-22T02:00:01.589Z,16.00
2022-10-22T02:02:41.467Z,15.90
2022-10-22T02:05:14.200Z,15.90
2022-10-22T02:07:47.079Z,15.90
2022-10-22T02:10:16.139Z,15.90
2022-10-22T02:12:46.056Z,15.90
2022-10-22T02:15:15.923Z,16.00
2022-10-22T02:17:48.184Z,16.00
2022-10-22T02:20:18.974Z,16.00
2022-10-22T02:22:46.476Z,16.00
2022-10-22T02:25:16.756Z,16.00
2022-10-22T02:27:48.167Z,16.10
2022-10-22T02:30:20.566Z,16.10
2022-10-22T02:32:55.684Z,16.10
2022-10-22T02:35:26.546Z,16.10
2022-10-22T02:37:55.536Z,16.10
2022-10-22T02:40:23.401Z,16.00
2022-10-22T02:42:58.638Z,16.00
2022-10-22T02:45:26.114Z,16.10
2022-10-22T02:47:56.690Z,16.10
2022-10-22T02:50:23.629Z,16.10
2022-10-22T02:52:53.559Z,16.10
2022-10-22T02:55:23.517Z,16.10
2022-10-22T02:57:50.361Z,16.10
2022-10-22T03:00:23.492Z,16.10
2022-10-22T03:02:50.425Z,16.10
2022-10-22T03:05:21.765Z,16.10
2022-10-22T03:07:54.524Z,16.10
2022-10-22T03:10:21.604Z,16.10
2022-10-22T03:12:48.472Z,16.10
2022-10-22T03:15:15.674Z,16.00
2022-10-22T03:17:45.742Z,16.00
2022-10-22T03:20:12.835Z,16.00
2022-10-22T03:22:42.455Z,16.00
2022-10-22T03:25:14.085Z,16.10
2022-10-22T03:27:51.932Z,16.00
2022-10-22T03:30:22.182Z,16.00
2022-10-22T03:32:52.922Z,16.00
2022-10-22T03:35:23.128Z,16.00
2022-10-22T03:37:54.938Z,16.00
2022-10-22T03:40:22.159Z,16.00
2022-10-22T03:42:51.925Z,16.00
2022-10-22T03:45:19.168Z,16.00
2022-10-22T03:47:54.948Z,16.00
2022-10-22T03:50:22.039Z,15.90
2022-10-22T03:52:50.971Z,15.90
2022-10-22T03:55:19.525Z,15.90
2022-10-22T03:57:46.403Z,16.00
2022-10-22T04:00:13.727Z,15.90
2022-10-22T04:02:40.655Z,15.90
2022-10-22T04:05:08.640Z,15.80
2022-10-22T04:07:35.609Z,15.80
2022-10-22T04:10:02.521Z,15.80
2022-10-22T04:12:30.781Z,15.90
2022-10-22T04:14:57.648Z,15.90
2022-10-22T04:17:24.948Z,15.90
2022-10-22T04:19:51.851Z,15.90
2022-10-22T04:22:18.888Z,15.90
2022-10-22T04:24:52.868Z,15.90
2022-10-22T04:27:19.908Z,15.90
2022-10-22T04:29:48.347Z,15.90
2022-10-22T04:32:15.309Z,15.90
2022-10-22T04:34:42.217Z,15.90
2022-10-22T04:37:12.987Z,15.90
2022-10-22T04:39:41.914Z,15.90
2022-10-22T04:42:12.686Z,15.90
2022-10-22T04:44:39.570Z,15.90
2022-10-22T04:47:10.512Z,15.80
2022-10-22T04:49:43.576Z,15.80
2022-10-22T04:52:12.558Z,15.80
2022-10-22T04:54:42.302Z,15.80
2022-10-22T04:57:09.342Z,15.80
2022-10-22T04:59:39.358Z,15.80
2022-10-22T05:02:10.762Z,15.80
2022-10-22T05:04:37.716Z,15.80
2022-10-22T05:07:04.779Z,15.80
2022-10-22T05:09:38.990Z,15.80
2022-10-22T05:12:09.214Z,15.80
2022-10-22T05:14:42.638Z,15.90
2022-10-22T05:17:20.551Z,15.90
2022-10-22T05:19:47.447Z,15.90
2022-10-22T05:22:14.577Z,15.90
2022-10-22T05:24:41.429Z,15.90
2022-10-22T05:27:08.428Z,15.90
2022-10-22T05:29:35.837Z,15.80
2022-10-22T05:32:02.971Z,15.80
2022-10-22T05:34:33.227Z,15.80
2022-10-22T05:37:00.254Z,15.80
2022-10-22T05:39:27.342Z,15.80
2022-10-22T05:41:54.269Z,15.80
2022-10-22T05:44:21.186Z,15.80
2022-10-22T05:46:48.115Z,15.90
2022-10-22T05:49:16.156Z,15.90
2022-10-22T05:51:44.798Z,15.90
2022-10-22T05:54:18.070Z,15.90
2022-10-22T05:56:45.588Z,15.90
2022-10-22T05:59:12.641Z,15.90
2022-10-22T06:01:40.667Z,16.00
2022-10-22T06:04:11.659Z,15.90
2022-10-22T06:06:44.094Z,15.90
2022-10-22T06:09:16.459Z,15.80
2022-10-22T06:11:43.415Z,15.80
2022-10-22T06:14:11.244Z,15.70
2022-10-22T06:16:41.775Z,15.60
2022-10-22T06:19:09.976Z,15.60
2022-10-22T06:21:37.086Z,15.50
2022-10-22T06:24:07.202Z,15.50
2022-10-22T06:26:34.261Z,15.40
2022-10-22T06:29:01.731Z,15.50
2022-10-22T06:31:29.570Z,15.40
2022-10-22T06:33:57.107Z,15.40
2022-10-22T06:36:24.825Z,15.40
2022-10-22T06:38:52.574Z,15.50
2022-10-22T06:41:24.310Z,15.50
2022-10-22T06:43:57.920Z,15.50
2022-10-22T06:46:26.114Z,15.50
2022-10-22T06:48:56.532Z,15.50
2022-10-22T06:51:24.181Z,15.50
2022-10-22T06:53:51.389Z,15.60
2022-10-22T06:56:25.026Z,15.50
2022-10-22T06:58:54.860Z,15.50
2022-10-22T07:01:26.053Z,15.60
2022-10-22T07:03:53.711Z,15.50
2022-10-22T07:06:22.195Z,15.50
2022-10-22T07:08:49.758Z,15.50
2022-10-22T07:11:25.171Z,15.50
2022-10-22T07:13:58.458Z,15.50
2022-10-22T07:16:31.108Z,15.50
2022-10-22T07:18:59.639Z,15.50
2022-10-22T07:21:26.873Z,15.50
2022-10-22T07:23:54.466Z,15.60
2022-10-22T07:26:21.768Z,15.60
2022-10-22T07:28:49.122Z,15.70
2022-10-22T07:31:18.749Z,15.70
2022-10-22T07:33:46.447Z,15.80
2022-10-22T07:36:17.862Z,15.80
2022-10-22T07:38:48.357Z,15.80
2022-10-22T07:41:16.187Z,15.90
2022-10-22T07:43:43.483Z,15.90
2022-10-22T07:46:10.443Z,15.90
2022-10-22T07:48:39.259Z,16.00
2022-10-22T07:51:06.930Z,16.00
2022-10-22T07:53:34.600Z,16.10
2022-10-22T07:56:01.588Z,16.00
2022-10-22T07:58:28.648Z,16.00
2022-10-22T08:00:57.133Z,15.90
2022-10-22T08:03:24.520Z,15.90
2022-10-22T08:05:55.751Z,15.90
2022-10-22T08:08:25.882Z,16.00
2022-10-22T08:10:58.719Z,16.10
2022-10-22T08:13:27.387Z,16.10
2022-10-22T08:15:57.371Z,16.10
2022-10-22T08:18:24.929Z,16.20
2022-10-22T08:20:52.659Z,16.20
2022-10-22T08:23:25.896Z,16.20
2022-10-22T08:25:56.281Z,16.20
2022-10-22T08:28:23.251Z,16.20
2022-10-22T08:30:50.303Z,16.30
2022-10-22T08:33:17.298Z,16.30
2022-10-22T08:35:49.644Z,16.30
2022-10-22T08:38:17.464Z,16.30
2022-10-22T08:40:50.850Z,16.30
2022-10-22T08:43:42.251Z,16.40
2022-10-22T08:46:45.542Z,16.40
2022-10-22T08:49:21.927Z,16.40
2022-10-22T08:51:49.465Z,16.50
2022-10-22T08:54:30.796Z,16.50
2022-10-22T08:57:24.710Z,16.50
2022-10-22T09:00:01.658Z,16.50
2022-10-22T09:02:40.079Z,16.60
2022-10-22T09:05:26.150Z,16.60
2022-10-22T09:07:54.736Z,16.60
2022-10-22T09:10:27.473Z,16.70
2022-10-22T09:12:55.886Z,16.80
2022-10-22T09:15:22.866Z,16.70
2022-10-22T09:18:10.639Z,16.80
2022-10-22T09:20:44.890Z,16.80
2022-10-22T09:23:26.794Z,16.80
2022-10-22T09:25:55.316Z,16.80
2022-10-22T09:28:23.639Z,16.90
2022-10-22T09:30:51.024Z,16.90
2022-10-22T09:33:26.329Z,16.90
2022-10-22T09:35:56.568Z,17.00
2022-10-22T09:38:27.335Z,17.00
2022-10-22T09:40:57.576Z,17.10
2022-10-22T09:43:26.441Z,17.10
2022-10-22T09:45:58.435Z,17.10
2022-10-22T09:48:32.018Z,17.20
2022-10-22T09:51:06.366Z,17.20
2022-10-22T09:53:43.620Z,17.30
2022-10-22T09:56:26.514Z,17.30
2022-10-22T09:58:57.679Z,17.30
2022-10-22T10:01:27.848Z,17.50
2022-10-22T10:03:55.066Z,17.70
2022-10-22T10:06:23.408Z,17.80
2022-10-22T10:08:52.238Z,18.00
2022-10-22T10:11:29.673Z,18.00
2022-10-22T10:14:13.369Z,18.10
2022-10-22T10:16:59.202Z,18.00
2022-10-22T10:19:49.455Z,18.10
2022-10-22T10:22:34.263Z,18.10
2022-10-22T10:25:23.402Z,18.20
2022-10-22T10:28:02.172Z,18.20
2022-10-22T10:30:31.318Z,18.20
2022-10-22T10:33:20.304Z,18.30
2022-10-22T10:35:55.392Z,18.40
2022-10-22T10:38:38.297Z,18.50
2022-10-22T10:41:18.240Z,18.50
2022-10-22T10:44:00.918Z,18.60
2022-10-22T10:46:37.964Z,18.50
2022-10-22T10:49:19.969Z,18.60
2022-10-22T10:51:58.190Z,18.50
2022-10-22T10:54:47.336Z,18.50
2022-10-22T10:57:28.889Z,18.50
2022-10-22T11:00:06.731Z,18.50
2022-10-22T11:03:21.301Z,18.50
2022-10-22T11:05:54.711Z,18.50
2022-10-22T11:08:26.955Z,18.50
2022-10-22T11:10:59.488Z,18.50
2022-10-22T11:13:32.466Z,18.50
2022-10-22T11:16:06.869Z,18.50
2022-10-22T11:18:41.411Z,18.50
2022-10-22T11:21:16.833Z,18.40
2022-10-22T11:23:51.781Z,18.50
2022-10-22T11:26:32.404Z,18.40
2022-10-22T11:29:11.152Z,18.30
2022-10-22T11:31:39.086Z,18.20
2022-10-22T11:34:32.533Z,18.20
2022-10-22T11:37:04.359Z,18.10
2022-10-22T11:39:39.559Z,18.10
2022-10-22T11:42:20.645Z,18.20
2022-10-22T11:44:58.548Z,18.30
2022-10-22T11:47:28.109Z,18.30
2022-10-22T11:50:10.819Z,18.40
2022-10-22T11:52:49.465Z,18.40
2022-10-22T11:55:46.372Z,18.40
2022-10-22T11:58:30.619Z,18.50
2022-10-22T12:01:18.250Z,18.50
2022-10-22T12:03:49.998Z,18.40
2022-10-22T12:06:22.507Z,18.60
2022-10-22T12:08:59.542Z,18.60
2022-10-22T12:11:29.546Z,18.70
2022-10-22T12:14:12.205Z,18.80
2022-10-22T12:17:01.226Z,18.80
2022-10-22T12:19:32.554Z,18.70
2022-10-22T12:22:14.376Z,18.70
2022-10-22T12:24:45.087Z,18.80
2022-10-22T12:27:24.877Z,18.80
2022-10-22T12:29:56.229Z,19.00
2022-10-22T12:32:34.313Z,19.00
2022-10-22T12:35:07.814Z,19.10
2022-10-22T12:37:37.856Z,19.10
2022-10-22T12:40:18.480Z,19.20
2022-10-22T12:42:53.161Z,19.20
2022-10-22T12:45:20.703Z,19.20
2022-10-22T12:47:52.952Z,19.20
2022-10-22T12:50:29.469Z,19.30
2022-10-22T12:53:00.817Z,19.30
2022-10-22T12:55:27.806Z,19.40
2022-10-22T12:58:06.555Z,19.40
2022-10-22T13:00:35.806Z,19.30
2022-10-22T13:03:07.772Z,19.30
2022-10-22T13:05:41.178Z,19.20
2022-10-22T13:08:13.301Z,19.20
2022-10-22T13:10:42.107Z,19.10
2022-10-22T13:13:31.966Z,19.20
2022-10-22T13:16:14.976Z,19.20
2022-10-22T13:18:43.905Z,19.20
2022-10-22T13:21:34.796Z,19.30
2022-10-22T13:24:19.186Z,19.30
2022-10-22T13:26:49.880Z,19.30
2022-10-22T13:29:19.530Z,19.30
2022-10-22T13:31:48.549Z,19.20
2022-10-22T13:34:20.340Z,19.20
2022-10-22T13:36:48.100Z,19.10
2022-10-22T13:39:19.823Z,19.00
2022-10-22T13:41:47.044Z,19.00
2022-10-22T13:44:13.944Z,19.00
2022-10-22T13:46:43.124Z,19.00
2022-10-22T13:49:17.164Z,19.00
2022-10-22T13:51:44.911Z,19.10
2022-10-22T13:54:18.178Z,19.10
2022-10-22T13:56:45.583Z,19.10
2022-10-22T13:59:12.944Z,19.10
2022-10-22T14:01:40.183Z,19.20
2022-10-22T14:04:10.960Z,19.30
2022-10-22T14:06:38.067Z,19.30
2022-10-22T14:09:08.928Z,19.20
2022-10-22T14:11:37.263Z,19.20
2022-10-22T14:14:09.054Z,19.20
2022-10-22T14:16:39.234Z,19.10
2022-10-22T14:19:14.356Z,19.10
2022-10-22T14:21:43.982Z,19.10
2022-10-22T14:24:14.313Z,19.20
2022-10-22T14:26:42.578Z,19.30
2022-10-22T14:29:14.875Z,19.30
2022-10-22T14:31:44.428Z,19.30
2022-10-22T14:34:16.958Z,19.30
2022-10-22T14:36:44.454Z,19.30
2022-10-22T14:39:11.622Z,19.30
2022-10-22T14:41:38.803Z,19.30
2022-10-22T14:44:07.728Z,19.30
2022-10-22T14:46:34.752Z,19.40
2022-10-22T14:49:02.928Z,19.40
2022-10-22T14:51:29.931Z,19.30
2022-10-22T14:53:59.974Z,19.30
2022-10-22T14:56:27.240Z,19.30
2022-10-22T14:59:00.327Z,19.30
2022-10-22T15:01:28.721Z,19.30
2022-10-22T15:03:55.759Z,19.20
2022-10-22T15:06:22.708Z,19.20
2022-10-22T15:08:49.937Z,19.10
2022-10-22T15:11:19.916Z,19.10
2022-10-22T15:13:46.863Z,19.10
2022-10-22T15:16:16.607Z,19.10
2022-10-22T15:18:47.949Z,19.00
2022-10-22T15:21:22.933Z,19.00
2022-10-22T15:23:50.408Z,19.10
2022-10-22T15:26:17.965Z,19.10
2022-10-22T15:28:44.938Z,19.10
2022-10-22T15:31:14.537Z,19.10
2022-10-22T15:33:43.784Z,19.10
2022-10-22T15:36:12.995Z,19.00
2022-10-22T15:38:40.681Z,19.00
2022-10-22T15:41:10.800Z,19.00
2022-10-22T15:43:37.773Z,18.90
2022-10-22T15:46:14.718Z,18.90
2022-10-22T15:48:43.913Z,18.80
2022-10-22T15:51:13.058Z,18.80
2022-10-22T15:53:41.071Z,18.70
2022-10-22T15:56:09.390Z,18.70
2022-10-22T15:58:36.329Z,18.60
2022-10-22T16:01:07.756Z,18.60
2022-10-22T16:03:35.182Z,18.50
2022-10-22T16:06:04.481Z,18.50
2022-10-22T16:08:31.770Z,18.40
2022-10-22T16:10:59.167Z,18.30
2022-10-22T16:13:26.582Z,18.20
2022-10-22T16:15:56.381Z,18.10
2022-10-22T16:18:23.799Z,18.10
2022-10-22T16:20:50.933Z,18.10
2022-10-22T16:23:20.740Z,17.90
2022-10-22T16:25:47.743Z,17.80
2022-10-22T16:28:14.917Z,17.70
2022-10-22T16:30:42.187Z,17.60
2022-10-22T16:33:11.013Z,17.60
2022-10-22T16:35:41.237Z,17.50
2022-10-22T16:38:09.798Z,17.50
2022-10-22T16:40:38.519Z,17.60
2022-10-22T16:43:05.679Z,17.60
2022-10-22T16:45:32.738Z,17.50
2022-10-22T16:47:59.712Z,17.40
2022-10-22T16:50:27.215Z,17.30
2022-10-22T16:55:38.121Z,17.30
2022-10-22T16:58:05.767Z,17.20
2022-10-22T17:00:33.150Z,17.10
2022-10-22T17:03:00.325Z,17.00
2022-10-22T17:05:29.474Z,17.00
2022-10-22T17:07:59.545Z,17.00
2022-10-22T17:10:26.659Z,17.10
2022-10-22T17:12:54.983Z,17.10
2022-10-22T17:15:21.970Z,17.00
2022-10-22T17:17:54.857Z,17.00
2022-10-22T17:20:21.992Z,16.90
2022-10-22T17:22:51.971Z,16.70
2022-10-22T17:25:24.877Z,16.40
2022-10-22T17:28:01.155Z,16.40
2022-10-22T17:30:30.304Z,16.40
2022-10-22T17:32:57.526Z,16.40
2022-10-22T17:35:24.603Z,16.50
2022-10-22T17:37:51.682Z,16.50
2022-10-22T17:40:18.724Z,16.50
2022-10-22T17:42:49.316Z,16.50
2022-10-22T17:45:16.470Z,16.50
2022-10-22T17:47:44.778Z,16.50
2022-10-22T17:50:11.757Z,16.50
2022-10-22T17:52:39.107Z,16.40
2022-10-22T17:55:07.672Z,16.40
2022-10-22T17:57:34.652Z,16.40
2022-10-22T18:00:01.983Z,16.30
2022-10-22T18:02:30.463Z,16.10
2022-10-22T18:04:58.799Z,15.90
2022-10-22T18:07:25.912Z,15.90
2022-10-22T18:09:52.839Z,15.70
2022-10-22T18:12:19.869Z,15.70
2022-10-22T18:14:47.038Z,15.70
2022-10-22T18:19:46.152Z,15.70
2022-10-22T18:22:14.476Z,15.80
2022-10-22T18:24:41.552Z,15.80
2022-10-22T18:27:08.564Z,15.80
2022-10-22T18:29:35.598Z,15.70
2022-10-22T18:32:09.442Z,15.70
2022-10-22T18:34:41.207Z,15.70
2022-10-22T18:37:08.392Z,15.60
2022-10-22T18:39:36.682Z,15.60
2022-10-22T18:42:06.362Z,15.50
2022-10-22T18:44:35.076Z,15.50
2022-10-22T18:47:02.149Z,15.20
2022-10-22T18:49:29.287Z,15.10
2022-10-22T18:51:56.204Z,15.10
2022-10-22T18:54:29.373Z,15.20
2022-10-22T18:57:00.624Z,15.30
2022-10-22T18:59:30.794Z,15.20
2022-10-22T19:01:59.515Z,15.20
2022-10-22T19:04:31.020Z,15.30
2022-10-22T19:07:04.409Z,15.30
2022-10-22T19:09:34.997Z,15.20
2022-10-22T19:12:03.731Z,15.20
2022-10-22T19:14:31.536Z,15.00
2022-10-22T19:17:01.774Z,14.90
2022-10-22T19:19:31.973Z,14.80
2022-10-22T19:22:02.083Z,14.80
2022-10-22T19:24:29.702Z,14.70
2022-10-22T19:26:59.527Z,14.80
2022-10-22T19:29:30.667Z,14.80
2022-10-22T19:32:00.800Z,14.70
2022-10-22T19:34:27.879Z,14.70
2022-10-22T19:36:56.023Z,14.60
2022-10-22T19:39:25.950Z,14.60
2022-10-22T19:41:52.906Z,14.70
2022-10-22T19:44:19.850Z,14.60
2022-10-22T19:46:48.323Z,14.80
2022-10-22T19:49:18.842Z,14.90
2022-10-22T19:51:48.910Z,15.00
2022-10-22T19:54:18.535Z,15.00
2022-10-22T19:56:46.425Z,15.00
2022-10-22T19:59:15.260Z,15.10
2022-10-22T20:01:44.228Z,15.10
2022-10-22T20:04:16.798Z,15.10
2022-10-22T20:06:44.476Z,15.10
2022-10-22T20:09:15.230Z,15.00
2022-10-22T20:11:48.181Z,15.00
2022-10-22T20:14:15.374Z,14.90
2022-10-22T20:16:43.058Z,14.80
2022-10-22T20:19:16.095Z,14.70
2022-10-22T20:21:44.755Z,14.60
2022-10-22T20:24:12.583Z,14.60
2022-10-22T20:26:39.575Z,14.60
2022-10-22T20:29:14.612Z,14.50
2022-10-22T20:31:41.971Z,14.40
2022-10-22T20:34:13.569Z,14.30
2022-10-22T20:36:45.852Z,14.40
2022-10-22T20:39:15.304Z,14.50
2022-10-22T20:41:49.807Z,14.40
2022-10-22T20:44:18.816Z,14.50
2022-10-22T20:46:46.359Z,14.40
2022-10-22T20:49:17.059Z,14.20
2022-10-22T20:51:44.620Z,14.20
2022-10-22T20:54:11.850Z,14.30
2022-10-22T20:56:42.531Z,14.40
2022-10-22T20:59:12.011Z,14.30
2022-10-22T21:01:41.733Z,14.40
2022-10-22T21:04:09.212Z,14.30
2022-10-22T21:06:41.679Z,14.40
2022-10-22T21:09:13.825Z,14.50
2022-10-22T21:11:42.696Z,14.40
2022-10-22T21:14:12.744Z,14.30
2022-10-22T21:16:41.725Z,14.50
2022-10-22T21:19:08.843Z,14.50
2022-10-22T21:21:37.163Z,14.40
2022-10-22T21:24:04.679Z,14.50
2022-10-22T21:26:36.375Z,14.50
2022-10-22T21:29:03.539Z,14.40
2022-10-22T21:31:30.663Z,14.40
2022-10-22T21:34:00.373Z,14.30
2022-10-22T21:36:27.535Z,14.20
2022-10-22T21:38:58.326Z,14.30
2022-10-22T21:41:25.320Z,14.20
2022-10-22T21:43:52.333Z,14.20
2022-10-22T21:46:21.924Z,14.20
2022-10-22T21:48:54.260Z,14.20
2022-10-22T21:51:23.017Z,14.10
2022-10-22T21:53:53.179Z,14.10
2022-10-22T21:56:25.264Z,14.00
2022-10-22T21:58:52.873Z,13.90
2022-10-22T22:01:23.220Z,14.00
2022-10-22T22:03:51.451Z,14.10
2022-10-22T22:06:28.284Z,13.90
2022-10-22T22:08:56.607Z,13.90
2022-10-22T22:11:28.910Z,13.80
2022-10-22T22:13:58.016Z,13.70
2022-10-22T22:16:31.128Z,13.80
2022-10-22T22:19:00.359Z,13.90
2022-10-22T22:21:29.736Z,13.90
2022-10-22T22:23:58.447Z,13.90
2022-10-22T22:26:30.043Z,13.80
2022-10-22T22:28:59.207Z,13.80
2022-10-22T22:31:29.736Z,13.80
2022-10-22T22:34:00.856Z,13.80
2022-10-22T22:36:32.144Z,13.70
2022-10-22T22:39:03.970Z,13.80
2022-10-22T22:41:32.319Z,13.80
2022-10-22T22:43:59.375Z,13.80
2022-10-22T22:46:29.185Z,13.90
2022-10-22T22:48:58.382Z,13.80
2022-10-22T22:51:25.429Z,13.80
2022-10-22T22:53:52.425Z,13.80
2022-10-22T22:56:22.743Z,13.70
2022-10-22T22:58:54.522Z,13.70
2022-10-22T23:01:24.739Z,13.60
2022-10-22T23:03:56.998Z,13.70
2022-10-22T23:06:25.469Z,13.70
2022-10-22T23:08:53.938Z,13.70
2022-10-22T23:11:22.444Z,13.60
2022-10-22T23:13:57.456Z,13.60
2022-10-22T23:16:30.839Z,13.70
2022-10-22T23:18:59.081Z,13.70
2022-10-22T23:21:29.459Z,13.50
2022-10-22T23:23:59.857Z,13.50
2022-10-22T23:26:30.156Z,13.50
2022-10-22T23:29:02.267Z,13.60
2022-10-22T23:31:29.465Z,13.50
2022-10-22T23:33:56.399Z,13.60
2022-10-22T23:36:26.270Z,13.60
2022-10-22T23:38:54.258Z,13.50
2022-10-22T23:41:24.078Z,13.50
2022-10-22T23:43:51.489Z,13.40
2022-10-22T23:46:20.025Z,13.40
2022-10-22T23:48:49.830Z,13.40
2022-10-22T23:51:17.661Z,13.40
2022-10-22T23:53:45.206Z,13.40
2022-10-22T23:56:18.669Z,13.40
2022-10-22T23:58:48.787Z,13.40
